Time;durP1;ratioP1;P1;durP2;ratioP2;P2;SDS_P1;SDS_P2;PMS_P1;PMS_P2;Temp;Humidity;BMP_temperature;BMP_pressure;BME280_temperature;BME280_humidity;BME280_pressure;Samples;Min_cycle;Max_cycle;Signal;HPM_P1;HPM_P2
2021/06/26 00:00:44;;;;;;;;;;;15.80;99.90;;;;;;6155797;23;20001;-72
2021/06/26 00:03:10;;;;;;;;;;;15.70;99.90;;;;;;6182116;23;20447;-72
2021/06/26 00:05:35;;;;;;;;;;;15.70;99.90;;;;;;6155757;23;19977;-72
2021/06/26 00:08:01;;;;;;;;;;;15.70;99.90;;;;;;6182174;23;19996;-73
2021/06/26 00:10:26;;;;;;;;;;;15.60;99.90;;;;;;6182052;23;20396;-73
2021/06/26 00:12:52;;;;;;;;;;;15.60;99.90;;;;;;6155689;23;19981;-72
2021/06/26 00:15:17;;;;;;;;;;;15.50;99.90;;;;;;6155757;23;19977;-72
2021/06/26 00:17:43;;;;;;;;;;;15.50;99.90;;;;;;6182294;23;19995;-72
2021/06/26 00:20:08;;;;;;;;;;;15.50;99.90;;;;;;6155657;23;20081;-72
2021/06/26 00:22:34;;;;;;;;;;;15.40;99.90;;;;;;6155549;23;20001;-72
2021/06/26 00:24:59;;;;;;;;;;;15.40;99.90;;;;;;6155444;23;19984;-73
2021/06/26 00:27:25;;;;;;;;;;;15.40;99.90;;;;;;6181931;23;19995;-73
2021/06/26 00:29:50;;;;;;;;;;;15.30;99.90;;;;;;6181949;23;19980;-72
2021/06/26 00:32:16;;;;;;;;;;;15.30;99.90;;;;;;6181921;23;19988;-72
2021/06/26 00:34:41;;;;;;;;;;;15.20;99.90;;;;;;6155465;23;20063;-72
2021/06/26 00:37:07;;;;;;;;;;;15.20;99.90;;;;;;6155413;23;20025;-73
2021/06/26 00:39:32;;;;;;;;;;;15.10;99.90;;;;;;6155418;23;19984;-72
2021/06/26 00:42:00;;;;;;;;;;;15.10;99.90;;;;;;6155251;23;20403;-73
2021/06/26 00:44:26;;;;;;;;;;;15.00;99.90;;;;;;6155266;23;20424;-73
2021/06/26 00:46:52;;;;;;;;;;;15.00;99.90;;;;;;6181566;23;20013;-73
2021/06/26 00:49:17;;;;;;;;;;;15.00;99.90;;;;;;6181389;23;20011;-72
2021/06/26 00:51:43;;;;;;;;;;;14.90;99.90;;;;;;6181748;23;19973;-72
2021/06/26 00:54:08;;;;;;;;;;;14.90;99.90;;;;;;6155110;23;19986;-72
2021/06/26 00:56:34;;;;;;;;;;;14.80;99.90;;;;;;6155075;23;20000;-73
2021/06/26 00:58:59;;;;;;;;;;;14.80;99.90;;;;;;6155087;23;20321;-72
2021/06/26 01:01:26;;;;;;;;;;;14.80;99.90;;;;;;6154924;23;20079;-72
2021/06/26 01:03:51;;;;;;;;;;;14.70;99.90;;;;;;6181553;23;19974;-72
2021/06/26 01:06:17;;;;;;;;;;;14.70;99.90;;;;;;6155024;23;20055;-73
2021/06/26 01:08:42;;;;;;;;;;;14.60;99.90;;;;;;6155127;23;20512;-71
2021/06/26 01:11:08;;;;;;;;;;;14.60;99.90;;;;;;6155085;23;19976;-73
2021/06/26 01:13:34;;;;;;;;;;;14.60;99.90;;;;;;6155080;23;20060;-72
2021/06/26 01:15:59;;;;;;;;;;;14.50;99.90;;;;;;6155122;23;20397;-72
2021/06/26 01:18:25;;;;;;;;;;;14.50;99.90;;;;;;6155407;23;20389;-72
2021/06/26 01:20:52;;;;;;;;;;;14.40;99.90;;;;;;6159505;23;19997;-73
2021/06/26 01:23:18;;;;;;;;;;;14.40;99.90;;;;;;6159515;23;19983;-72
2021/06/26 01:25:44;;;;;;;;;;;14.40;99.90;;;;;;6186127;23;19973;-72
2021/06/26 01:28:09;;;;;;;;;;;14.30;99.90;;;;;;6182238;23;19996;-72
2021/06/26 01:30:36;;;;;;;;;;;14.30;99.90;;;;;;6155984;23;19977;-72
2021/06/26 01:33:02;;;;;;;;;;;14.30;99.90;;;;;;6155336;23;20020;-73
2021/06/26 01:35:28;;;;;;;;;;;14.20;99.90;;;;;;6154577;23;19981;-72
2021/06/26 01:37:53;;;;;;;;;;;14.20;99.90;;;;;;6155091;23;20000;-73
2021/06/26 01:40:20;;;;;;;;;;;14.20;99.90;;;;;;6181246;23;19973;-73
2021/06/26 01:42:46;;;;;;;;;;;14.30;99.90;;;;;;6181377;23;19984;-73
2021/06/26 01:45:12;;;;;;;;;;;14.30;99.90;;;;;;6154962;23;20050;-73
2021/06/26 01:47:43;;;;;;;;;;;14.30;99.90;;;;;;6154713;23;20005;-72
2021/06/26 01:50:09;;;;;;;;;;;14.30;99.90;;;;;;6154917;23;19976;-72
2021/06/26 01:52:34;;;;;;;;;;;14.20;99.90;;;;;;6181225;23;19973;-72
2021/06/26 01:55:00;;;;;;;;;;;14.20;99.90;;;;;;6154838;23;20048;-72
2021/06/26 01:57:25;;;;;;;;;;;14.20;99.90;;;;;;6181076;23;20324;-72
2021/06/26 01:59:51;;;;;;;;;;;14.10;99.90;;;;;;6181160;23;19974;-72
2021/06/26 02:02:17;;;;;;;;;;;14.10;99.90;;;;;;6154717;23;19997;-72
2021/06/26 02:04:42;;;;;;;;;;;14.00;99.90;;;;;;6154757;23;19985;-72
2021/06/26 02:07:07;;;;;;;;;;;14.00;99.90;;;;;;6154596;23;19993;-72
2021/06/26 02:09:33;;;;;;;;;;;13.90;99.90;;;;;;6154662;23;20064;-72
2021/06/26 02:11:58;;;;;;;;;;;13.90;99.90;;;;;;6154720;23;19977;-73
2021/06/26 02:14:24;;;;;;;;;;;13.90;99.90;;;;;;6154597;23;20293;-74
2021/06/26 02:16:49;;;;;;;;;;;13.90;99.90;;;;;;6181074;23;20012;-73
2021/06/26 02:19:15;;;;;;;;;;;13.80;99.90;;;;;;6154614;23;20048;-73
2021/06/26 02:21:40;;;;;;;;;;;13.80;99.90;;;;;;6154708;23;19997;-72
2021/06/26 02:24:06;;;;;;;;;;;13.80;99.90;;;;;;6180930;23;20004;-72
2021/06/26 02:26:31;;;;;;;;;;;13.80;99.90;;;;;;6180990;23;20075;-73
2021/06/26 02:28:57;;;;;;;;;;;13.70;99.90;;;;;;6181067;23;19973;-72
2021/06/26 02:31:22;;;;;;;;;;;13.70;99.90;;;;;;6181773;23;19973;-72
2021/06/26 02:33:48;;;;;;;;;;;13.70;99.90;;;;;;6181122;23;19973;-72
2021/06/26 02:36:13;;;;;;;;;;;13.70;99.90;;;;;;6181443;23;20381;-73
2021/06/26 02:38:39;;;;;;;;;;;13.70;99.90;;;;;;6154796;23;19981;-73
2021/06/26 02:41:04;;;;;;;;;;;13.60;99.90;;;;;;6154619;23;20019;-72
2021/06/26 02:43:30;;;;;;;;;;;13.60;99.90;;;;;;6181119;23;20294;-72
2021/06/26 02:45:55;;;;;;;;;;;13.60;99.90;;;;;;6181056;23;19980;-72
2021/06/26 02:48:21;;;;;;;;;;;13.60;99.90;;;;;;6182712;23;20008;-72
2021/06/26 02:50:46;;;;;;;;;;;13.50;99.90;;;;;;6182834;23;19997;-72
2021/06/26 02:53:12;;;;;;;;;;;13.50;99.90;;;;;;6183215;23;19977;-72
2021/06/26 02:55:37;;;;;;;;;;;13.50;99.90;;;;;;6182873;23;19973;-72
2021/06/26 02:58:03;;;;;;;;;;;13.50;99.90;;;;;;6182755;23;20419;-72
2021/06/26 03:00:28;;;;;;;;;;;13.50;99.90;;;;;;6156381;23;20401;-72
2021/06/26 03:02:53;;;;;;;;;;;13.50;99.90;;;;;;6182750;23;20052;-72
2021/06/26 03:05:19;;;;;;;;;;;13.40;99.90;;;;;;6156344;23;19977;-72
2021/06/26 03:07:49;;;;;;;;;;;13.40;99.90;;;;;;6156261;23;20430;-72
2021/06/26 03:10:14;;;;;;;;;;;13.40;99.90;;;;;;6156220;23;20414;-72
2021/06/26 03:12:40;;;;;;;;;;;13.40;99.90;;;;;;6156206;23;20056;-72
2021/06/26 03:15:05;;;;;;;;;;;13.30;99.90;;;;;;6156215;23;20012;-72
2021/06/26 03:17:31;;;;;;;;;;;13.40;99.90;;;;;;6182511;23;19997;-72
2021/06/26 03:19:56;;;;;;;;;;;13.40;99.90;;;;;;6182612;23;20298;-72
2021/06/26 03:22:22;;;;;;;;;;;13.40;99.90;;;;;;6182448;23;20486;-72
2021/06/26 03:24:47;;;;;;;;;;;13.40;99.90;;;;;;6156211;23;19977;-72
2021/06/26 03:27:14;;;;;;;;;;;13.40;99.90;;;;;;6156064;23;20016;-73
2021/06/26 03:29:40;;;;;;;;;;;13.30;99.90;;;;;;6156233;23;19981;-73
2021/06/26 03:32:06;;;;;;;;;;;13.40;99.90;;;;;;6156090;23;20012;-72
2021/06/26 03:34:31;;;;;;;;;;;13.30;99.90;;;;;;6182429;23;20023;-72
2021/06/26 03:36:56;;;;;;;;;;;13.40;99.90;;;;;;6182384;23;19989;-72
2021/06/26 03:39:23;;;;;;;;;;;13.30;99.90;;;;;;6156122;23;20031;-72
2021/06/26 03:41:48;;;;;;;;;;;13.40;99.90;;;;;;6182635;23;20000;-72
2021/06/26 03:44:14;;;;;;;;;;;13.40;99.90;;;;;;6182356;23;19973;-72
2021/06/26 03:46:39;;;;;;;;;;;13.40;99.90;;;;;;6184157;23;20431;-71
2021/06/26 03:49:05;;;;;;;;;;;13.40;99.90;;;;;;6156049;23;20371;-72
2021/06/26 03:51:30;;;;;;;;;;;13.40;99.90;;;;;;6182417;23;19980;-72
2021/06/26 03:53:56;;;;;;;;;;;13.50;99.90;;;;;;6155945;23;19999;-72
2021/06/26 03:56:21;;;;;;;;;;;13.50;99.90;;;;;;6183025;23;19977;-72
2021/06/26 03:58:47;;;;;;;;;;;13.60;99.90;;;;;;6182063;23;20077;-72
2021/06/26 04:01:12;;;;;;;;;;;13.70;99.90;;;;;;6155728;23;20322;-72
2021/06/26 04:03:38;;;;;;;;;;;13.70;99.90;;;;;;6182096;23;20308;-72
2021/06/26 04:06:04;;;;;;;;;;;13.80;99.90;;;;;;6182365;23;20372;-72
2021/06/26 04:08:29;;;;;;;;;;;13.90;99.90;;;;;;6182109;23;20364;-72
2021/06/26 04:10:54;;;;;;;;;;;14.00;99.90;;;;;;6155775;23;20019;-72
2021/06/26 04:13:20;;;;;;;;;;;14.00;99.90;;;;;;6182079;23;19977;-72
2021/06/26 04:15:45;;;;;;;;;;;14.00;99.90;;;;;;6182502;23;20423;-72
2021/06/26 04:18:11;;;;;;;;;;;14.10;99.90;;;;;;6182002;23;19996;-73
2021/06/26 04:20:36;;;;;;;;;;;14.10;99.90;;;;;;6182068;23;20056;-73
2021/06/26 04:23:02;;;;;;;;;;;14.20;99.90;;;;;;6182362;23;19984;-73
2021/06/26 04:25:28;;;;;;;;;;;14.20;99.90;;;;;;6155611;23;19985;-73
2021/06/26 04:27:54;;;;;;;;;;;14.20;99.90;;;;;;6155477;23;20067;-73
2021/06/26 04:30:20;;;;;;;;;;;14.30;99.90;;;;;;6181961;23;20056;-73
2021/06/26 04:32:45;;;;;;;;;;;14.40;99.90;;;;;;6181817;23;20032;-72
2021/06/26 04:35:13;;;;;;;;;;;14.40;99.90;;;;;;6155522;23;20004;-72
2021/06/26 04:37:38;;;;;;;;;;;14.50;99.90;;;;;;6155385;23;20000;-72
2021/06/26 04:40:05;;;;;;;;;;;14.50;99.90;;;;;;6155413;23;19977;-73
2021/06/26 04:42:30;;;;;;;;;;;14.60;99.90;;;;;;6181646;23;20336;-73
2021/06/26 04:44:57;;;;;;;;;;;14.60;99.90;;;;;;6181761;23;19974;-73
2021/06/26 04:47:23;;;;;;;;;;;14.70;99.90;;;;;;6155593;23;20100;-73
2021/06/26 04:49:48;;;;;;;;;;;14.80;99.90;;;;;;6181870;23;20013;-73
2021/06/26 04:52:14;;;;;;;;;;;14.80;99.90;;;;;;6181960;23;19973;-73
2021/06/26 04:54:39;;;;;;;;;;;14.90;99.90;;;;;;6155561;23;20000;-73
2021/06/26 04:57:05;;;;;;;;;;;15.00;99.90;;;;;;6181650;23;19996;-73
2021/06/26 04:59:31;;;;;;;;;;;15.10;99.90;;;;;;6182062;23;20391;-73
2021/06/26 05:01:56;;;;;;;;;;;15.20;99.90;;;;;;6155248;23;20003;-73
2021/06/26 05:04:22;;;;;;;;;;;15.20;99.90;;;;;;6155445;23;20020;-72
2021/06/26 05:06:47;;;;;;;;;;;15.20;99.90;;;;;;6155096;23;20017;-73
2021/06/26 05:09:13;;;;;;;;;;;15.30;99.90;;;;;;6155331;23;19981;-73
2021/06/26 05:11:39;;;;;;;;;;;15.40;99.90;;;;;;6155173;23;19985;-73
2021/06/26 05:14:04;;;;;;;;;;;15.50;99.90;;;;;;6181597;23;19977;-73
2021/06/26 05:16:29;;;;;;;;;;;15.50;99.90;;;;;;6155062;23;25055;-73
2021/06/26 05:18:55;;;;;;;;;;;15.60;99.90;;;;;;6181559;23;20024;-73
2021/06/26 05:21:20;;;;;;;;;;;15.70;99.90;;;;;;6181452;23;20036;-73
2021/06/26 05:23:46;;;;;;;;;;;15.70;99.90;;;;;;6181469;23;19977;-73
2021/06/26 05:26:12;;;;;;;;;;;15.80;99.90;;;;;;6181781;23;19985;-73
2021/06/26 05:28:37;;;;;;;;;;;15.90;99.90;;;;;;6155169;23;19985;-73
2021/06/26 05:31:03;;;;;;;;;;;15.90;99.90;;;;;;6181555;23;20428;-73
2021/06/26 05:33:29;;;;;;;;;;;16.00;99.90;;;;;;6155100;23;19981;-73
2021/06/26 05:35:54;;;;;;;;;;;16.10;99.90;;;;;;6155044;23;19981;-73
2021/06/26 05:38:20;;;;;;;;;;;16.10;99.90;;;;;;6181441;23;20306;-73
2021/06/26 05:40:45;;;;;;;;;;;16.20;99.90;;;;;;6181316;23;20033;-73
2021/06/26 05:43:11;;;;;;;;;;;16.30;99.90;;;;;;6181372;23;19985;-73
2021/06/26 05:45:36;;;;;;;;;;;16.40;99.90;;;;;;6181763;23;19977;-73
2021/06/26 05:48:02;;;;;;;;;;;16.40;99.90;;;;;;6181223;23;20016;-73
2021/06/26 05:50:27;;;;;;;;;;;16.60;99.90;;;;;;6181405;23;19984;-73
2021/06/26 05:52:54;;;;;;;;;;;16.60;99.90;;;;;;6181297;23;19992;-73
2021/06/26 05:55:20;;;;;;;;;;;16.70;99.90;;;;;;6154914;23;19988;-73
2021/06/26 05:57:46;;;;;;;;;;;16.70;99.90;;;;;;6154856;23;20004;-73
2021/06/26 06:00:12;;;;;;;;;;;16.80;99.90;;;;;;6154914;23;19981;-73
2021/06/26 06:02:38;;;;;;;;;;;16.90;99.90;;;;;;6181131;23;20335;-74
2021/06/26 06:05:04;;;;;;;;;;;17.00;99.90;;;;;;6154986;23;20056;-73
2021/06/26 06:07:29;;;;;;;;;;;17.10;99.90;;;;;;6154975;23;20028;-73
2021/06/26 06:09:55;;;;;;;;;;;17.10;99.90;;;;;;6154842;23;20022;-73
2021/06/26 06:12:20;;;;;;;;;;;17.10;99.90;;;;;;6181439;23;19982;-74
2021/06/26 06:14:45;;;;;;;;;;;17.20;99.90;;;;;;6154930;23;19981;-73
2021/06/26 06:17:11;;;;;;;;;;;17.30;99.90;;;;;;6181285;23;19993;-73
2021/06/26 06:19:36;;;;;;;;;;;17.30;99.90;;;;;;6181759;23;20027;-73
2021/06/26 06:22:08;;;;;;;;;;;17.40;99.90;;;;;;6182106;23;20081;-73
2021/06/26 06:24:33;;;;;;;;;;;17.50;99.90;;;;;;6161161;23;19982;-73
2021/06/26 06:26:59;;;;;;;;;;;17.60;99.90;;;;;;6161711;23;20507;-73
2021/06/26 06:29:24;;;;;;;;;;;17.80;99.90;;;;;;6189321;23;19985;-73
2021/06/26 06:31:50;;;;;;;;;;;17.90;99.90;;;;;;6185888;23;19977;-73
2021/06/26 06:34:15;;;;;;;;;;;18.00;99.90;;;;;;6183850;23;19981;-73
2021/06/26 06:36:41;;;;;;;;;;;18.00;99.90;;;;;;6157591;23;19997;-73
2021/06/26 06:39:06;;;;;;;;;;;18.10;99.90;;;;;;6156640;23;19988;-72
2021/06/26 06:41:32;;;;;;;;;;;18.20;99.90;;;;;;6156488;23;20005;-73
2021/06/26 06:43:57;;;;;;;;;;;18.30;99.90;;;;;;6156365;23;20106;-73
2021/06/26 06:46:22;;;;;;;;;;;18.40;99.90;;;;;;6156158;23;19989;-73
2021/06/26 06:48:48;;;;;;;;;;;18.50;99.90;;;;;;6183335;23;19988;-73
2021/06/26 06:51:14;;;;;;;;;;;18.60;99.90;;;;;;6182975;23;19984;-73
2021/06/26 06:53:39;;;;;;;;;;;18.70;99.90;;;;;;6183028;23;20092;-73
2021/06/26 06:56:05;;;;;;;;;;;18.80;99.90;;;;;;6183082;23;20317;-74
2021/06/26 06:58:30;;;;;;;;;;;18.90;99.90;;;;;;6182861;23;19993;-73
2021/06/26 07:00:55;;;;;;;;;;;19.00;99.90;;;;;;6182957;23;20052;-73
2021/06/26 07:03:21;;;;;;;;;;;19.10;99.90;;;;;;6156478;23;19999;-73
2021/06/26 07:05:46;;;;;;;;;;;19.10;99.90;;;;;;6182897;23;19985;-74
2021/06/26 07:08:12;;;;;;;;;;;19.30;99.90;;;;;;6156775;23;20317;-73
2021/06/26 07:10:37;;;;;;;;;;;19.40;99.90;;;;;;6182806;23;19977;-73
2021/06/26 07:13:03;;;;;;;;;;;19.60;99.90;;;;;;6182760;23;19973;-73
2021/06/26 07:15:28;;;;;;;;;;;19.80;99.90;;;;;;6182761;23;19973;-73
2021/06/26 07:17:54;;;;;;;;;;;20.00;99.90;;;;;;6182632;23;20039;-73
2021/06/26 07:20:19;;;;;;;;;;;20.10;99.90;;;;;;6156282;23;20408;-73
2021/06/26 07:22:45;;;;;;;;;;;20.00;99.90;;;;;;6156164;23;20001;-73
2021/06/26 07:25:11;;;;;;;;;;;20.10;99.50;;;;;;6182697;23;20419;-72
2021/06/26 07:27:36;;;;;;;;;;;20.30;99.90;;;;;;6182652;23;20417;-73
2021/06/26 07:30:02;;;;;;;;;;;20.40;99.30;;;;;;6156214;23;19995;-72
2021/06/26 07:32:28;;;;;;;;;;;20.40;98.30;;;;;;6182308;23;19980;-72
2021/06/26 07:34:53;;;;;;;;;;;20.40;98.60;;;;;;6155800;23;20418;-72
2021/06/26 07:37:19;;;;;;;;;;;20.50;97.90;;;;;;6156072;23;20068;-74
2021/06/26 07:39:44;;;;;;;;;;;20.60;97.20;;;;;;6182425;23;20411;-72
2021/06/26 07:42:10;;;;;;;;;;;20.60;96.30;;;;;;6182255;23;19997;-71
2021/06/26 07:44:35;;;;;;;;;;;20.70;96.70;;;;;;6182476;23;20028;-71
2021/06/26 07:47:01;;;;;;;;;;;20.70;96.90;;;;;;6182279;23;20456;-73
2021/06/26 07:49:26;;;;;;;;;;;20.80;96.50;;;;;;6155908;23;19977;-72
2021/06/26 07:51:52;;;;;;;;;;;21.10;95.70;;;;;;6182396;23;19984;-72
2021/06/26 07:54:17;;;;;;;;;;;21.30;95.00;;;;;;6182674;23;19973;-73
2021/06/26 07:56:44;;;;;;;;;;;21.30;94.00;;;;;;6155839;23;19999;-73
2021/06/26 07:59:09;;;;;;;;;;;21.60;94.20;;;;;;6155979;23;19977;-72
2021/06/26 08:01:35;;;;;;;;;;;21.90;93.90;;;;;;6182203;23;20047;-73
2021/06/26 08:04:01;;;;;;;;;;;21.90;92.70;;;;;;6155835;23;20069;-73
2021/06/26 08:06:27;;;;;;;;;;;22.00;92.40;;;;;;6155709;23;20008;-73
2021/06/26 08:08:52;;;;;;;;;;;21.90;92.20;;;;;;6155782;23;20301;-74
2021/06/26 08:11:18;;;;;;;;;;;22.00;92.60;;;;;;6155812;23;20000;-74
2021/06/26 08:13:43;;;;;;;;;;;22.00;91.80;;;;;;6155710;23;20063;-73
2021/06/26 08:16:09;;;;;;;;;;;21.90;92.20;;;;;;6182303;23;19973;-73
2021/06/26 08:18:34;;;;;;;;;;;22.00;92.00;;;;;;6181924;23;19989;-74
2021/06/26 08:21:00;;;;;;;;;;;22.00;90.90;;;;;;6181942;23;20080;-73
2021/06/26 08:23:25;;;;;;;;;;;22.10;91.20;;;;;;6155720;23;19996;-72
2021/06/26 08:25:51;;;;;;;;;;;22.10;90.40;;;;;;6181988;23;19973;-72
2021/06/26 08:28:16;;;;;;;;;;;22.20;87.50;;;;;;6155560;23;20000;-74
2021/06/26 08:30:42;;;;;;;;;;;22.40;88.90;;;;;;6182282;23;20401;-73
2021/06/26 08:33:07;;;;;;;;;;;22.60;88.50;;;;;;6155628;23;19985;-73
2021/06/26 08:35:33;;;;;;;;;;;22.60;86.00;;;;;;6155466;23;19985;-73
2021/06/26 08:37:58;;;;;;;;;;;22.70;86.10;;;;;;6155414;23;19993;-73
2021/06/26 08:40:24;;;;;;;;;;;22.70;85.60;;;;;;6182153;23;20052;-74
2021/06/26 08:42:50;;;;;;;;;;;22.90;83.50;;;;;;6155394;23;20004;-73
2021/06/26 08:45:17;;;;;;;;;;;23.00;82.90;;;;;;6181402;23;20344;-73
2021/06/26 08:47:45;;;;;;;;;;;23.20;84.80;;;;;;6181540;23;20005;-72
2021/06/26 08:50:10;;;;;;;;;;;23.40;82.80;;;;;;6155330;23;19977;-74
2021/06/26 08:52:36;;;;;;;;;;;23.70;81.80;;;;;;6155415;23;20003;-74
2021/06/26 08:55:02;;;;;;;;;;;23.80;82.20;;;;;;6181647;23;20473;-74
2021/06/26 08:57:32;;;;;;;;;;;24.10;80.20;;;;;;6181517;23;19999;-73
2021/06/26 08:59:58;;;;;;;;;;;24.30;80.70;;;;;;6181677;23;19973;-74
2021/06/26 09:02:24;;;;;;;;;;;24.50;78.90;;;;;;6181534;23;20000;-73
2021/06/26 09:04:50;;;;;;;;;;;24.70;79.00;;;;;;6181522;23;20008;-74
2021/06/26 09:07:25;;;;;;;;;;;24.90;76.60;;;;;;6181427;23;19990;-74
2021/06/26 09:09:50;;;;;;;;;;;24.80;75.50;;;;;;6181536;23;19996;-73
2021/06/26 09:12:19;;;;;;;;;;;24.90;75.50;;;;;;6155115;23;19977;-74
2021/06/26 09:14:44;;;;;;;;;;;25.10;73.40;;;;;;6181624;23;19973;-74
2021/06/26 09:17:12;;;;;;;;;;;25.40;72.60;;;;;;6181445;23;19989;-74
2021/06/26 09:19:38;;;;;;;;;;;25.70;70.10;;;;;;6181980;23;20285;-74
2021/06/26 09:22:11;;;;;;;;;;;25.80;72.40;;;;;;6181364;23;20047;-74
2021/06/26 09:24:44;;;;;;;;;;;26.00;65.80;;;;;;6154974;23;20051;-74
2021/06/26 09:27:10;;;;;;;;;;;26.10;68.50;;;;;;6181300;23;20352;-75
2021/06/26 09:29:45;;;;;;;;;;;26.40;68.40;;;;;;6181358;23;19977;-74
2021/06/26 09:32:11;;;;;;;;;;;26.70;68.60;;;;;;6155345;23;19976;-74
2021/06/26 09:34:36;;;;;;;;;;;27.00;62.70;;;;;;6154955;23;20019;-74
2021/06/26 09:37:02;;;;;;;;;;;27.20;66.10;;;;;;6155151;23;20059;-74
2021/06/26 09:39:41;;;;;;;;;;;27.40;65.80;;;;;;6181318;23;20024;-74
2021/06/26 09:42:36;;;;;;;;;;;27.70;64.80;;;;;;6154984;23;19996;-74
2021/06/26 09:45:03;;;;;;;;;;;28.10;60.10;;;;;;6151392;23;19978;-74
2021/06/26 09:47:35;;;;;;;;;;;28.40;59.70;;;;;;6182478;23;20017;-77
2021/06/26 09:50:07;;;;;;;;;;;28.80;59.20;;;;;;6181225;23;19977;-77
2021/06/26 09:52:38;;;;;;;;;;;29.70;58.50;;;;;;6154966;23;20009;-77
2021/06/26 09:55:14;;;;;;;;;;;31.00;53.40;;;;;;6154965;23;19977;-77
2021/06/26 09:57:39;;;;;;;;;;;32.40;48.80;;;;;;6180884;23;20025;-77
2021/06/26 10:00:05;;;;;;;;;;;33.90;44.00;;;;;;6154924;23;19988;-77
2021/06/26 10:02:31;;;;;;;;;;;34.80;41.40;;;;;;6154774;23;20001;-77
2021/06/26 10:04:57;;;;;;;;;;;35.70;39.10;;;;;;6154962;23;20316;-77
2021/06/26 10:07:23;;;;;;;;;;;35.50;39.80;;;;;;6181154;23;20004;-77
2021/06/26 10:09:48;;;;;;;;;;;35.20;39.70;;;;;;6154927;23;19986;-77
2021/06/26 10:12:14;;;;;;;;;;;34.20;42.60;;;;;;6181218;23;19974;-77
2021/06/26 10:14:40;;;;;;;;;;;34.90;41.70;;;;;;6181356;23;19973;-77
2021/06/26 10:17:06;;;;;;;;;;;35.60;38.20;;;;;;6181210;23;19988;-77
2021/06/26 10:19:31;;;;;;;;;;;35.90;36.30;;;;;;6155081;23;19981;-75
2021/06/26 10:21:57;;;;;;;;;;;36.60;38.50;;;;;;6181394;23;20080;-75
2021/06/26 10:24:23;;;;;;;;;;;37.70;33.10;;;;;;6154854;23;20000;-75
2021/06/26 10:26:48;;;;;;;;;;;38.60;33.20;;;;;;6154787;23;19981;-76
2021/06/26 10:29:14;;;;;;;;;;;39.70;32.00;;;;;;6154751;23;19986;-76
2021/06/26 10:31:41;;;;;;;;;;;40.30;30.70;;;;;;6154699;23;19984;-75
2021/06/26 10:34:33;;;;;;;;;;;40.40;29.80;;;;;;6181124;23;20044;-76
2021/06/26 10:36:58;;;;;;;;;;;40.90;30.40;;;;;;6173696;23;20001;-76
2021/06/26 10:39:25;;;;;;;;;;;40.00;29.90;;;;;;6181106;23;19973;-76
2021/06/26 10:42:05;;;;;;;;;;;38.60;33.00;;;;;;6154728;23;20032;-76
2021/06/26 10:44:45;;;;;;;;;;;38.70;32.70;;;;;;6181079;23;20337;-75
2021/06/26 10:47:12;;;;;;;;;;;39.00;33.50;;;;;;6155066;23;20428;-76
2021/06/26 10:49:37;;;;;;;;;;;39.40;33.00;;;;;;6154811;23;20014;-75
2021/06/26 10:52:10;;;;;;;;;;;39.90;31.00;;;;;;6181431;23;20388;-76
2021/06/26 10:54:36;;;;;;;;;;;39.50;32.90;;;;;;6154723;23;19977;-75
2021/06/26 10:57:05;;;;;;;;;;;39.60;31.90;;;;;;6181113;23;20039;-75
2021/06/26 10:59:31;;;;;;;;;;;40.20;30.80;;;;;;6154699;23;19981;-75
2021/06/26 11:01:59;;;;;;;;;;;40.60;30.80;;;;;;6181999;23;19992;-75
2021/06/26 11:04:25;;;;;;;;;;;41.10;30.50;;;;;;6180976;23;19980;-76
2021/06/26 11:07:01;;;;;;;;;;;41.80;30.00;;;;;;6154581;23;19977;-76
2021/06/26 11:09:33;;;;;;;;;;;42.50;28.20;;;;;;6156515;23;19980;-76
2021/06/26 11:12:06;;;;;;;;;;;42.40;27.10;;;;;;6183007;23;19980;-75
2021/06/26 11:14:31;;;;;;;;;;;42.80;28.60;;;;;;6182823;23;19985;-75
2021/06/26 11:16:57;;;;;;;;;;;43.50;26.50;;;;;;6182627;23;19973;-76
2021/06/26 11:19:27;;;;;;;;;;;43.80;27.10;;;;;;6182703;23;19977;-75
2021/06/26 11:21:54;;;;;;;;;;;43.50;27.60;;;;;;6182537;23;20004;-76
2021/06/26 11:24:31;;;;;;;;;;;42.40;26.70;;;;;;6182889;23;19972;-76
2021/06/26 11:26:57;;;;;;;;;;;43.20;27.30;;;;;;6156117;23;19977;-76
2021/06/26 11:29:22;;;;;;;;;;;42.90;27.00;;;;;;6182668;23;19985;-75
2021/06/26 11:31:48;;;;;;;;;;;43.30;26.90;;;;;;6182855;23;19981;-75
2021/06/26 11:34:13;;;;;;;;;;;43.70;26.10;;;;;;6183243;23;20008;-75
2021/06/26 11:36:39;;;;;;;;;;;42.30;28.60;;;;;;6182398;23;20002;-76
2021/06/26 11:39:05;;;;;;;;;;;43.00;27.80;;;;;;6156028;23;19981;-76
2021/06/26 11:41:30;;;;;;;;;;;44.20;26.10;;;;;;6156001;23;19997;-75
2021/06/26 11:43:55;;;;;;;;;;;43.80;26.20;;;;;;6182584;23;19973;-76
2021/06/26 11:46:21;;;;;;;;;;;44.20;25.90;;;;;;6182401;23;19977;-76
2021/06/26 11:48:50;;;;;;;;;;;44.40;26.40;;;;;;6155856;23;20005;-76
2021/06/26 11:51:15;;;;;;;;;;;43.80;26.50;;;;;;6182352;23;19973;-76
2021/06/26 11:53:41;;;;;;;;;;;43.20;26.30;;;;;;6155886;23;19987;-75
2021/06/26 11:56:07;;;;;;;;;;;43.50;27.10;;;;;;6156239;23;19984;-76
2021/06/26 11:58:36;;;;;;;;;;;43.60;26.30;;;;;;6156066;23;19999;-76
2021/06/26 12:01:02;;;;;;;;;;;43.00;27.10;;;;;;6155941;23;20047;-76
2021/06/26 12:03:29;;;;;;;;;;;44.70;25.40;;;;;;6156000;23;19981;-76
2021/06/26 12:05:58;;;;;;;;;;;45.00;25.00;;;;;;6182249;23;19973;-76
2021/06/26 12:08:24;;;;;;;;;;;44.30;25.90;;;;;;6155851;23;20122;-76
2021/06/26 12:10:50;;;;;;;;;;;43.20;26.30;;;;;;6182347;23;20008;-76
2021/06/26 12:13:15;;;;;;;;;;;42.20;26.80;;;;;;6155697;23;19981;-76
2021/06/26 12:15:42;;;;;;;;;;;42.70;26.70;;;;;;6182537;23;19984;-76
2021/06/26 12:18:07;;;;;;;;;;;43.20;25.80;;;;;;6182714;23;19989;-76
2021/06/26 12:20:36;;;;;;;;;;;42.90;26.20;;;;;;6181981;23;20008;-76
2021/06/26 12:23:06;;;;;;;;;;;43.80;27.10;;;;;;6181919;23;20078;-76
2021/06/26 12:25:39;;;;;;;;;;;44.10;25.50;;;;;;6182040;23;20400;-76
2021/06/26 12:28:07;;;;;;;;;;;44.70;25.70;;;;;;6155717;23;19993;-76
2021/06/26 12:30:33;;;;;;;;;;;45.40;24.30;;;;;;6155610;23;20388;-76
2021/06/26 12:33:02;;;;;;;;;;;45.30;25.10;;;;;;6155657;23;20023;-76
2021/06/26 12:35:29;;;;;;;;;;;45.70;24.50;;;;;;6155596;23;20012;-76
2021/06/26 12:37:54;;;;;;;;;;;45.80;23.50;;;;;;6181867;23;20408;-76
2021/06/26 12:40:28;;;;;;;;;;;45.50;24.00;;;;;;6181924;23;20115;-75
2021/06/26 12:42:56;;;;;;;;;;;45.10;24.10;;;;;;6155529;23;20019;-76
2021/06/26 12:45:24;;;;;;;;;;;46.30;22.80;;;;;;6155463;23;19981;-75
2021/06/26 12:47:56;;;;;;;;;;;45.50;25.40;;;;;;6155247;23;20008;-75
2021/06/26 12:50:22;;;;;;;;;;;45.80;23.80;;;;;;6155445;23;20008;-76
2021/06/26 12:52:50;;;;;;;;;;;45.30;23.40;;;;;;6156101;23;19984;-76
2021/06/26 12:55:17;;;;;;;;;;;45.10;25.00;;;;;;6155472;23;19977;-76
2021/06/26 12:57:42;;;;;;;;;;;45.40;23.70;;;;;;6155170;23;20032;-76
2021/06/26 13:00:15;;;;;;;;;;;45.00;23.90;;;;;;6155323;23;19984;-76
2021/06/26 13:02:41;;;;;;;;;;;45.20;24.80;;;;;;6155237;23;20018;-75
2021/06/26 13:05:16;;;;;;;;;;;44.90;23.70;;;;;;6181785;23;20447;-75
2021/06/26 13:07:41;;;;;;;;;;;45.30;24.00;;;;;;6155418;23;19996;-76
2021/06/26 13:10:07;;;;;;;;;;;45.00;25.00;;;;;;6181726;23;20062;-76
2021/06/26 13:12:32;;;;;;;;;;;45.20;24.30;;;;;;6181686;23;20399;-76
2021/06/26 13:14:59;;;;;;;;;;;44.60;25.20;;;;;;6155210;23;19978;-75
2021/06/26 13:17:25;;;;;;;;;;;44.60;24.80;;;;;;6181454;23;19988;-75
2021/06/26 13:19:52;;;;;;;;;;;44.60;23.80;;;;;;6155205;23;20063;-76
2021/06/26 13:22:19;;;;;;;;;;;45.30;24.50;;;;;;6155234;23;20052;-76
2021/06/26 13:24:44;;;;;;;;;;;44.80;24.60;;;;;;6155154;23;20051;-76
2021/06/26 13:27:10;;;;;;;;;;;44.80;23.10;;;;;;6155276;23;20032;-76
2021/06/26 13:29:35;;;;;;;;;;;43.90;24.60;;;;;;6155213;23;19984;-75
2021/06/26 13:32:01;;;;;;;;;;;44.20;23.50;;;;;;6181669;23;20000;-76
2021/06/26 13:34:27;;;;;;;;;;;44.00;24.20;;;;;;6181984;23;20406;-75
2021/06/26 13:36:53;;;;;;;;;;;43.20;25.20;;;;;;6181638;23;19978;-75
2021/06/26 13:39:19;;;;;;;;;;;43.50;24.20;;;;;;6181300;23;20423;-76
2021/06/26 13:41:44;;;;;;;;;;;42.90;23.60;;;;;;6154859;23;19978;-76
2021/06/26 13:44:10;;;;;;;;;;;41.70;25.40;;;;;;6155061;23;20455;-76
2021/06/26 13:46:35;;;;;;;;;;;41.30;26.40;;;;;;6181344;23;19973;-75
2021/06/26 13:49:00;;;;;;;;;;;40.70;26.20;;;;;;6181153;23;20005;-75
2021/06/26 13:51:26;;;;;;;;;;;41.20;26.30;;;;;;6181297;23;19993;-75
2021/06/26 13:53:52;;;;;;;;;;;40.80;28.40;;;;;;6155046;23;20400;-75
2021/06/26 13:56:18;;;;;;;;;;;40.00;26.50;;;;;;6181309;23;20048;-75
2021/06/26 13:58:43;;;;;;;;;;;40.00;27.20;;;;;;6154849;23;20328;-76
2021/06/26 14:01:09;;;;;;;;;;;39.50;28.90;;;;;;6155185;23;19984;-77
2021/06/26 14:03:34;;;;;;;;;;;39.00;28.60;;;;;;6155075;23;20412;-75
2021/06/26 14:06:00;;;;;;;;;;;37.70;29.80;;;;;;6181589;23;19977;-77
2021/06/26 14:08:25;;;;;;;;;;;36.70;31.30;;;;;;6181556;23;20011;-77
2021/06/26 14:10:52;;;;;;;;;;;35.90;33.50;;;;;;6155146;23;19988;-78